Flight Track Log - Related Links

Times and Time Zones

All times are in EDT time to prevent confusion due to time zone crossing. See the N3746H flight status page for this flight to view local times or setup timezone preferences in your user account.

Time Position Orientation Groundspeed Altitude Reporting Facility
EDT Latitude Longitude Course Direction KTS MPH feet Rate Location/Type
Fri 05:14:18 PM 40.8142 -111.9622 78° East 172 198 5,300  Level Salt Lake Center
Fri 05:16:21 PM 40.9428 -111.9581 North 262 302 10,200 2,238 Climbing Salt Lake Center
Fri 05:17:00 PM 41.1292 -111.7917 124° Southeast  Level FlightAware Approximate
Fri 05:17:23 PM 40.9756 -111.8403 70° East 301 346 12,200  Level Salt Lake Center
Fri 05:18:00 PM 41.0573 -111.6708 135° Southeast  Level FlightAware Approximate
Fri 05:18:25 PM 41.0042 -111.7197 73° East 361 415 13,800  Level Salt Lake Center
Fri 05:19:00 PM 41.0300 -111.5367 78° East  Level FlightAware Approximate
Fri 05:19:27 PM 41.0344 -111.5858 73° East 382 440 16,700  Level Salt Lake Center
Fri 05:20:29 PM 41.0661 -111.4486 73° East 392 451 18,700 1,984 Climbing Salt Lake Center
Fri 05:21:31 PM 41.1053 -111.2728 73° East 416 479 20,800 1,984 Climbing Salt Lake Center
Fri 05:22:33 PM 41.1392 -111.1217 73° East 427 491 22,800 1,790 Climbing Salt Lake Center
Fri 05:23:35 PM 41.1742 -110.9664 73° East 439 505 24,500 1,597 Climbing Salt Lake Center
Fri 05:24:37 PM 41.2083 -110.8117 74° East 447 514 26,100 1,403 Climbing Salt Lake Center
Fri 05:25:39 PM 41.2475 -110.6314 74° East 455 524 27,400 1,500 Climbing Salt Lake Center
Fri 05:26:41 PM 41.2814 -110.4772 74° East 455 524 29,200 1,742 Climbing Salt Lake Center
Fri 05:27:43 PM 41.3203 -110.2994 74° East 450 518 31,000 1,452 Climbing Salt Lake Center
Fri 05:28:45 PM 41.3536 -110.1481 74° East 447 514 32,200 1,210 Climbing Salt Lake Center
Fri 05:29:47 PM 41.3906 -109.9714 74° East 445 512 33,500 1,113 Climbing Salt Lake Center
Fri 05:30:49 PM 41.4233 -109.8203 74° East 443 510 34,500 1,016 Climbing Salt Lake Center
Fri 05:31:51 PM 41.4606 -109.6419 74° East 447 514 35,600 968 Climbing Salt Lake Center
Fri 05:32:53 PM 41.4925 -109.4900 74° East 444 511 36,500 677 Climbing Salt Lake Center
Fri 05:33:55 PM 41.5244 -109.3381 74° East 443 510 37,000 242 Climbing Salt Lake Center
Fri 05:34:57 PM 41.5606 -109.1586 75° East 441 507 37,000  Level Salt Lake Center
Fri 05:35:59 PM 41.5989 -109.0083 71° East 441 507 37,000  Level Salt Lake Center
Fri 05:37:01 PM 41.6764 -108.8656 54° Northeast 427 491 37,000  Level Salt Lake Center
Fri 05:38:03 PM 41.7450 -108.7450 53° Northeast 426 490 37,000  Level Salt Lake Center
Fri 05:39:05 PM 41.8247 -108.6058 52° Northeast 423 487 37,000  Level Salt Lake Center
Fri 05:40:07 PM 41.8919 -108.4850 53° Northeast 423 487 37,000  Level Salt Lake Center
Fri 05:41:09 PM 41.9611 -108.3644 52° Northeast 426 490 37,000  Level Salt Lake Center
Fri 05:42:11 PM 42.0419 -108.2236 52° Northeast 427 491 37,000  Level Salt Lake Center
Fri 05:43:13 PM 42.1089 -108.1008 54° Northeast 425 489 37,000  Level Salt Lake Center
Fri 05:44:15 PM 42.1869 -107.9547 54° Northeast 429 494 37,000  Level Salt Lake Center
Fri 05:45:17 PM 42.2558 -107.8317 53° Northeast 429 494 37,000  Level Salt Lake Center
Fri 05:46:19 PM 42.3344 -107.6858 54° Northeast 429 494 37,000  Level Salt Lake Center
Fri 05:47:21 PM 42.4025 -107.5647 53° Northeast 424 488 37,000  Level Salt Lake Center
Fri 05:48:24 PM 42.4817 -107.4192 54° Northeast 429 494 37,000  Level Salt Lake Center
Fri 05:49:02 PM 42.5258 -107.3358 54° Northeast 425 489 37,000  Level Denver Center
Fri 05:50:04 PM 42.5944 -107.2125 53° Northeast 429 494 37,000  Level Denver Center
Fri 05:50:27 PM 42.6269 -107.1508 54° Northeast 428 493 37,000  Level Salt Lake Center
Fri 05:51:06 PM 42.6689 -107.0725 54° Northeast 426 490 37,000  Level Denver Center
Fri 05:52:08 PM 42.7469 -106.9278 54° Northeast 426 490 37,000  Level Denver Center
Fri 05:53:22 PM 42.8242 -106.7822 54° Northeast 424 488 37,000  Level Denver Center
Fri 05:54:24 PM 42.9022 -106.6344 54° Northeast 429 494 37,000  Level Denver Center
Fri 05:55:27 PM 42.9694 -106.5089 54° Northeast 428 493 37,000  Level Denver Center
Fri 05:56:29 PM 43.0481 -106.3597 54° Northeast 433 498 37,000  Level Denver Center
Fri 05:57:31 PM 43.1006 -106.2214 62° Northeast 433 498 37,000  Level Denver Center
Fri 05:58:33 PM 43.1314 -106.0419 77° East 434 499 37,000  Level Denver Center
Fri 05:59:35 PM 43.1575 -105.8878 77° East 434 499 37,000  Level Denver Center
Fri 06:00:37 PM 43.1883 -105.7100 77° East 431 496 37,000  Level Denver Center
Fri 06:01:39 PM 43.2125 -105.5575 78° East 428 493 37,000  Level Denver Center
Fri 06:02:41 PM 43.2386 -105.4050 77° East 429 494 37,000  Level Denver Center
Fri 06:03:43 PM 43.2675 -105.2242 78° East 432 497 37,000 339 Level Denver Center
Fri 06:04:45 PM 43.2928 -105.0703 77° East 432 497 37,700 484 Climbing Denver Center
Fri 06:05:47 PM 43.3228 -104.8897 77° East 433 498 38,000 145 Climbing Denver Center
Fri 06:06:49 PM 43.3422 -104.7617 78° East 429 494 38,000  Level Denver Center
Fri 06:07:51 PM 43.3744 -104.5567 78° East 429 494 38,000  Level Denver Center
Fri 06:08:53 PM 43.3989 -104.4025 78° East 429 494 38,000  Level Denver Center
Fri 06:09:55 PM 43.4261 -104.2222 78° East 430 495 38,000  Level Denver Center
Fri 06:10:57 PM 43.4494 -104.0675 78° East 431 496 38,000  Level Denver Center
Fri 06:11:59 PM 43.4722 -103.9133 78° East 430 495 38,000  Level Denver Center
Fri 06:13:01 PM 43.4994 -103.7300 78° East 438 504 38,000  Level Denver Center
Fri 06:14:04 PM 43.5239 -103.5750 78° East 434 499 38,000  Level Denver Center
Fri 06:15:06 PM 43.5511 -103.3928 78° East 434 499 38,000  Level Denver Center
Fri 06:16:08 PM 43.5731 -103.2339 79° East 438 504 38,000  Level Denver Center
Fri 06:17:10 PM 43.5986 -103.0478 79° East 442 509 38,000  Level Denver Center
Fri 06:18:12 PM 43.6208 -102.8900 79° East 439 505 38,000  Level Denver Center
Fri 06:19:14 PM 43.6461 -102.7064 79° East 438 504 38,000 -97 Level Denver Center
Fri 06:20:16 PM 43.6675 -102.5475 79° East 439 505 37,800 -581 Descending Denver Center
Fri 06:21:18 PM 43.6936 -102.3631 79° East 438 504 36,800 -1,065 Descending Denver Center
Fri 06:22:20 PM 43.7147 -102.2072 79° East 431 496 35,600 -871 Descending Denver Center
Fri 06:23:22 PM 43.7361 -102.0464 80° East 422 486 35,000 -290 Descending Denver Center
Fri 06:24:24 PM 43.7567 -101.8814 80° East 434 499 35,000  Level Denver Center
Fri 06:25:26 PM 43.7742 -101.7506 79° East 434 499 35,000  Level Denver Center
Fri 06:26:28 PM 43.8044 -101.5192 80° East 437 503 35,000  Level Denver Center
Fri 06:27:30 PM 43.8247 -101.3544 80° East 434 499 35,000  Level Denver Center
Fri 06:28:36 PM 43.8472 -101.1911 79° East 436 502 35,000  Level Minneapolis Center
Fri 06:29:34 PM 43.8683 -101.0211 80° East 443 510 35,000  Level Denver Center
Fri 06:30:36 PM 43.8900 -100.8553 80° East 440 506 35,000  Level Denver Center
Fri 06:31:38 PM 43.9111 -100.6878 80° East 443 510 35,000  Level Denver Center
Fri 06:32:40 PM 43.9361 -100.4894 80° East 439 505 35,000  Level Denver Center
Fri 06:33:47 PM 43.9564 -100.3211 80° East 443 510 35,000  Level Minneapolis Center
Fri 06:34:49 PM 43.9767 -100.1544 80° East 441 507 35,000  Level Minneapolis Center
Fri 06:35:51 PM 44.0011 -99.9544 80° East 440 506 35,000  Level Minneapolis Center
Fri 06:36:53 PM 44.0206 -99.7869 81° East 440 506 35,000  Level Minneapolis Center
Fri 06:37:55 PM 44.0403 -99.6192 81° East 441 507 35,000  Level Minneapolis Center
Fri 06:38:57 PM 44.0586 -99.4517 81° East 442 509 35,000  Level Minneapolis Center
Fri 06:39:59 PM 44.0775 -99.2842 81° East 441 507 35,000  Level Minneapolis Center
Fri 06:41:01 PM 44.0969 -99.1153 81° East 443 510 35,000  Level Minneapolis Center
Fri 06:42:03 PM 44.1203 -98.9106 81° East 447 514 35,000  Level Minneapolis Center
Fri 06:43:06 PM 44.1381 -98.7397 82° East 447 514 35,000  Level Minneapolis Center
Fri 06:44:08 PM 44.1558 -98.5753 81° East 446 513 35,000  Level Minneapolis Center
Fri 06:45:10 PM 44.1736 -98.4067 82° East 444 511 35,000  Level Minneapolis Center
Fri 06:46:12 PM 44.1911 -98.2369 82° East 444 511 35,000  Level Minneapolis Center
Fri 06:47:13 PM 44.2081 -98.0664 82° East 444 511 35,000  Level Minneapolis Center
Fri 06:48:16 PM 44.2286 -97.8606 82° East 447 514 35,000  Level Minneapolis Center
Fri 06:49:18 PM 44.2456 -97.6883 82° East 448 516 35,000 -97 Level Minneapolis Center
Fri 06:50:20 PM 44.2633 -97.5153 82° East 450 518 34,800 -581 Descending Minneapolis Center
Fri 06:51:22 PM 44.2778 -97.3442 83° East 447 514 33,800 -919 Descending Minneapolis Center
Fri 06:52:24 PM 44.2950 -97.1731 82° East 446 513 32,900 -919 Descending Minneapolis Center
Fri 06:53:26 PM 44.3100 -97.0022 83° East 445 512 31,900 -919 Descending Minneapolis Center
Fri 06:54:28 PM 44.3294 -96.7969 82° East 445 512 31,000 -823 Descending Minneapolis Center
Fri 06:55:30 PM 44.3453 -96.6258 83° East 445 512 30,200 -823 Descending Minneapolis Center
Fri 06:56:32 PM 44.3611 -96.4481 83° East 455 524 29,300 -968 Descending Minneapolis Center
Fri 06:57:34 PM 44.3761 -96.2703 83° East 456 525 28,200 -1,016 Descending Minneapolis Center
Fri 06:58:36 PM 44.3950 -96.1025 81° East 439 505 27,200 -968 Descending Minneapolis Center
Fri 06:59:38 PM 44.4192 -95.9422 78° East 421 484 26,200 -960 Descending Minneapolis Center
Fri 07:00:41 PM 44.4433 -95.7819 78° East 420 483 25,200 -1,104 Descending Minneapolis Center
Fri 07:01:43 PM 44.4714 -95.5903 78° East 419 482 23,900 -1,024 Descending Minneapolis Center
Fri 07:02:44 PM 44.4900 -95.4644 78° East 416 479 23,100 -919 Descending Minneapolis Center
Fri 07:03:47 PM 44.5178 -95.2736 78° East 417 480 22,000 -1,008 Descending Minneapolis Center
Fri 07:04:49 PM 44.5408 -95.1158 78° East 415 478 21,000 -968 Descending Minneapolis Center
Fri 07:05:51 PM 44.5633 -94.9603 78° East 410 472 20,000 -968 Descending Minneapolis Center
Fri 07:06:53 PM 44.5844 -94.8064 79° East 405 466 19,000 -1,065 Descending Minneapolis Center
Fri 07:07:55 PM 44.6089 -94.6333 79° East 395 455 17,800 -1,403 Descending Minneapolis Center
Fri 07:08:57 PM 44.6289 -94.4858 79° East 386 444 16,100 -1,887 Descending Minneapolis Center
Fri 07:09:59 PM 44.6500 -94.3422 78° East 375 432 13,900 -2,129 Descending Minneapolis Center
Fri 07:11:01 PM 44.6825 -94.2069 71° East 367 422 11,700 -1,403 Descending Minneapolis Center
Fri 07:12:03 PM 44.7169 -94.0481 73° East 354 407 11,000 -339 Descending Minneapolis Center
Fri 07:13:05 PM 44.7467 -93.9164 72° East 356 410 11,000  Level Minneapolis Center
Fri 07:14:07 PM 44.7767 -93.7833 72° East 356 410 11,000 -48 Level Minneapolis Center
Fri 07:15:09 PM 44.8061 -93.6508 73° East 355 409 10,900 -484 Descending Minneapolis Center
Fri 07:16:11 PM 44.8319 -93.5317 73° East 317 365 10,000 -1,104 Descending Minneapolis Center
Fri 07:17:14 PM 44.8564 -93.4214 73° East 296 341 8,600 -960 Descending Minneapolis Center
Fri 07:18:16 PM 44.8467 -93.3200 98° East 273 314 8,000 -532 Descending Minneapolis Center
Fri 07:19:18 PM 44.7714 -93.2989 169° South 235 270 7,500 -871 Descending Minneapolis Center
Fri 07:20:20 PM 44.7153 -93.2864 171° South 214 246 6,200 -1,258 Descending Minneapolis Center
Fri 07:21:22 PM 44.6811 -93.2353 133° Southeast 220 253 4,900 -1,161 Descending Minneapolis Center
Fri 07:22:24 PM 44.7272 -93.2000 29° Northeast 180 207 3,800 -1,065 Descending Minneapolis Center

Login

Don't have an account? Register now (free) for customized features, flight alerts, and more!